Time;durP1;ratioP1;P1;durP2;ratioP2;P2;SDS_P1;SDS_P2;PMS_P1;PMS_P2;Temp;Humidity;BMP_temperature;BMP_pressure;BME280_temperature;BME280_humidity;BME280_pressure;Samples;Min_cycle;Max_cycle;Signal;HPM_P1;HPM_P2
2022/05/17 00:00:32;;;;;;;;;;;25.10;46.30;;;;;;1592934;74;1902;-68
2022/05/17 00:02:34;;;;;;;;;;;25.00;46.30;;;;;;1595132;72;687;-68
2022/05/17 00:04:36;;;;;;;;;;;25.00;46.30;;;;;;1595780;72;710;-68
2022/05/17 00:06:38;;;;;;;;;;;25.00;46.30;;;;;;1591446;72;692;-67
2022/05/17 00:08:40;;;;;;;;;;;25.10;46.30;;;;;;1580608;73;1174;-68
2022/05/17 00:10:42;;;;;;;;;;;25.10;46.30;;;;;;1590574;74;684;-71
2022/05/17 00:12:44;;;;;;;;;;;25.10;46.30;;;;;;1592325;72;669;-70
2022/05/17 00:14:46;;;;;;;;;;;25.00;46.30;;;;;;1581684;73;649;-70
2022/05/17 00:16:48;;;;;;;;;;;25.10;46.30;;;;;;1596179;72;624;-70
2022/05/17 00:18:49;;;;;;;;;;;25.10;46.30;;;;;;1595849;73;1244;-70
2022/05/17 00:20:51;;;;;;;;;;;25.00;46.30;;;;;;1596395;74;1952;-70
2022/05/17 00:22:53;;;;;;;;;;;25.10;46.30;;;;;;1592999;73;706;-71
2022/05/17 00:24:55;;;;;;;;;;;25.00;46.30;;;;;;1597604;72;731;-68
2022/05/17 00:26:57;;;;;;;;;;;25.00;46.30;;;;;;1592761;73;1458;-71
2022/05/17 00:28:59;;;;;;;;;;;25.10;46.20;;;;;;1593120;73;1138;-71
2022/05/17 00:31:01;;;;;;;;;;;25.20;46.20;;;;;;1597582;73;680;-71
2022/05/17 00:33:03;;;;;;;;;;;25.00;46.20;;;;;;1592315;73;669;-71
2022/05/17 00:35:05;;;;;;;;;;;25.10;46.20;;;;;;1595543;74;666;-71
2022/05/17 00:37:08;;;;;;;;;;;25.00;46.30;;;;;;1594920;73;590;-71
2022/05/17 00:39:10;;;;;;;;;;;25.10;46.20;;;;;;1595841;72;1141;-70
2022/05/17 00:41:12;;;;;;;;;;;25.00;46.20;;;;;;1592833;73;1930;-70
2022/05/17 00:43:15;;;;;;;;;;;25.00;46.20;;;;;;1595259;73;585;-71
2022/05/17 00:45:16;;;;;;;;;;;25.00;46.20;;;;;;1594175;73;692;-70
2022/05/17 00:47:29;;;;;;;;;;;25.00;46.20;;;;;;1600027;73;594;-70
2022/05/17 00:49:32;;;;;;;;;;;25.00;46.10;;;;;;1612449;71;1144;-69
2022/05/17 00:51:34;;;;;;;;;;;25.10;46.10;;;;;;1573187;74;712;-71
2022/05/17 00:53:36;;;;;;;;;;;25.10;46.10;;;;;;1592629;73;748;-70
2022/05/17 00:55:45;;;;;;;;;;;25.00;46.10;;;;;;1609587;72;1341;-70
2022/05/17 00:57:57;;;;;;;;;;;25.10;46.10;;;;;;1597873;72;620;-71
2022/05/17 01:00:00;;;;;;;;;;;25.10;46.00;;;;;;1624905;72;1945;-70
2022/05/17 01:02:02;;;;;;;;;;;25.00;46.00;;;;;;1619445;72;696;-70
2022/05/17 01:04:05;;;;;;;;;;;25.10;46.00;;;;;;1619195;72;707;-70
2022/05/17 01:06:07;;;;;;;;;;;25.10;46.00;;;;;;1605798;72;632;-70
2022/05/17 01:08:09;;;;;;;;;;;25.00;46.00;;;;;;1613122;71;1144;-70
2022/05/17 01:10:11;;;;;;;;;;;25.00;46.00;;;;;;1618017;72;1748;-70
2022/05/17 01:12:13;;;;;;;;;;;25.00;46.00;;;;;;1613980;72;685;-69
2022/05/17 01:16:34;;;;;;;;;;;25.00;45.90;;;;;;1614041;72;1941;-68
2022/05/17 01:18:37;;;;;;;;;;;25.10;46.00;;;;;;1613212;72;1154;-71
2022/05/17 01:20:39;;;;;;;;;;;25.10;45.90;;;;;;1608806;72;1940;-69
2022/05/17 01:22:41;;;;;;;;;;;25.00;45.90;;;;;;1612352;73;683;-69
2022/05/17 01:24:43;;;;;;;;;;;25.00;45.90;;;;;;1607919;73;1587;-70
2022/05/17 01:26:46;;;;;;;;;;;25.00;45.90;;;;;;1572958;74;674;-70
2022/05/17 01:28:48;;;;;;;;;;;25.00;46.00;;;;;;1564778;74;1142;-70
2022/05/17 01:30:50;;;;;;;;;;;25.00;45.90;;;;;;1627075;72;656;-70
2022/05/17 01:32:52;;;;;;;;;;;25.00;46.00;;;;;;1607595;72;670;-70
2022/05/17 01:34:54;;;;;;;;;;;25.00;45.90;;;;;;1601577;72;665;-71
2022/05/17 01:36:56;;;;;;;;;;;25.00;45.90;;;;;;1614149;72;569;-70
2022/05/17 01:38:58;;;;;;;;;;;25.10;45.90;;;;;;1614148;72;1438;-70
2022/05/17 01:41:00;;;;;;;;;;;25.00;45.90;;;;;;1621069;72;1943;-70
2022/05/17 01:43:01;;;;;;;;;;;25.00;45.90;;;;;;1617031;72;696;-70
2022/05/17 01:45:03;;;;;;;;;;;25.10;45.90;;;;;;1615134;72;638;-70
2022/05/17 01:47:06;;;;;;;;;;;25.10;45.90;;;;;;1622427;72;705;-70
2022/05/17 01:49:07;;;;;;;;;;;25.10;45.90;;;;;;1612726;71;1160;-70
2022/05/17 01:51:09;;;;;;;;;;;25.10;45.80;;;;;;1614658;72;606;-69
2022/05/17 01:53:11;;;;;;;;;;;25.00;45.80;;;;;;1616135;72;1689;-71
2022/05/17 01:55:13;;;;;;;;;;;25.00;45.90;;;;;;1607147;72;655;-69
2022/05/17 01:57:15;;;;;;;;;;;25.00;45.80;;;;;;1597250;72;618;-70
2022/05/17 01:59:17;;;;;;;;;;;25.00;45.80;;;;;;1624252;71;221589;-60
2022/05/17 02:01:19;;;;;;;;;;;25.00;45.70;;;;;;1623781;71;1951;-58
2022/05/17 02:03:21;;;;;;;;;;;25.00;45.80;;;;;;1624200;73;771;-58
2022/05/17 02:05:23;;;;;;;;;;;25.00;45.70;;;;;;1605008;73;1533;-59
2022/05/17 02:07:25;;;;;;;;;;;25.00;45.70;;;;;;1611962;73;683;-59
2022/05/17 02:09:27;;;;;;;;;;;25.00;45.70;;;;;;1612716;73;921;-59
2022/05/17 02:11:29;;;;;;;;;;;25.00;45.70;;;;;;1603489;71;1057;-59
2022/05/17 02:13:31;;;;;;;;;;;25.00;45.70;;;;;;1623369;73;816;-59
2022/05/17 02:15:33;;;;;;;;;;;25.00;45.70;;;;;;1614956;73;682;-57
2022/05/17 02:17:38;;;;;;;;;;;25.00;45.70;;;;;;1617353;73;663;-54
2022/05/17 02:19:40;;;;;;;;;;;25.00;45.70;;;;;;1609071;73;1563;-53
2022/05/17 02:21:42;;;;;;;;;;;25.00;45.70;;;;;;1615011;73;1920;-56
2022/05/17 02:23:44;;;;;;;;;;;25.00;45.70;;;;;;1611908;73;924;-57
2022/05/17 02:25:46;;;;;;;;;;;25.00;45.70;;;;;;1613625;73;558;-57
2022/05/17 02:27:48;;;;;;;;;;;25.00;45.70;;;;;;1602175;73;672;-57
2022/05/17 02:29:50;;;;;;;;;;;25.00;45.70;;;;;;1608070;73;1147;-57
2022/05/17 02:31:52;;;;;;;;;;;25.00;45.70;;;;;;1603594;73;910;-55
2022/05/17 02:33:54;;;;;;;;;;;25.00;45.80;;;;;;1615283;73;1254;-58
2022/05/17 02:35:56;;;;;;;;;;;25.00;45.80;;;;;;1606006;73;650;-57
2022/05/17 02:37:57;;;;;;;;;;;25.00;45.80;;;;;;1594066;73;767;-57
2022/05/17 02:39:59;;;;;;;;;;;25.00;45.90;;;;;;1604699;73;1139;-57
2022/05/17 02:42:02;;;;;;;;;;;25.00;45.90;;;;;;1605315;73;1926;-57
2022/05/17 02:44:04;;;;;;;;;;;25.00;46.00;;;;;;1617172;73;636;-56
2022/05/17 02:46:07;;;;;;;;;;;25.00;46.00;;;;;;1602232;73;658;-56
2022/05/17 02:48:09;;;;;;;;;;;25.00;46.00;;;;;;1606184;73;1576;-57
2022/05/17 02:50:11;;;;;;;;;;;25.00;46.00;;;;;;1617451;71;1131;-58
2022/05/17 02:52:12;;;;;;;;;;;25.00;46.00;;;;;;1598640;73;661;-58
2022/05/17 02:54:14;;;;;;;;;;;25.00;46.00;;;;;;1606679;73;835;-56
2022/05/17 02:56:16;;;;;;;;;;;25.00;46.00;;;;;;1596535;73;666;-58
2022/05/17 02:58:18;;;;;;;;;;;25.00;46.00;;;;;;1606622;73;699;-57
2022/05/17 03:00:20;;;;;;;;;;;25.00;46.00;;;;;;1598469;73;1174;-54
2022/05/17 03:02:22;;;;;;;;;;;25.00;46.10;;;;;;1598735;73;1512;-55
2022/05/17 03:04:26;;;;;;;;;;;25.00;46.10;;;;;;1597931;73;662;-57
2022/05/17 03:06:27;;;;;;;;;;;25.00;46.10;;;;;;1603797;73;1778;-58
2022/05/17 03:08:29;;;;;;;;;;;25.00;46.20;;;;;;1599908;73;681;-55
2022/05/17 03:10:31;;;;;;;;;;;25.00;46.20;;;;;;1600131;73;1117;-56
2022/05/17 03:12:33;;;;;;;;;;;24.90;46.30;;;;;;1595871;73;731;-56
2022/05/17 03:14:35;;;;;;;;;;;25.00;46.30;;;;;;1609791;73;785;-53
2022/05/17 03:16:37;;;;;;;;;;;25.00;46.20;;;;;;1604682;73;1555;-56
2022/05/17 03:18:39;;;;;;;;;;;25.00;46.30;;;;;;1596488;73;727;-56
2022/05/17 03:20:41;;;;;;;;;;;25.00;46.30;;;;;;1611321;73;1944;-55
2022/05/17 03:22:43;;;;;;;;;;;25.00;46.30;;;;;;1601123;73;849;-56
2022/05/17 03:24:44;;;;;;;;;;;25.00;46.30;;;;;;1600865;73;788;-57
2022/05/17 03:26:46;;;;;;;;;;;24.90;46.30;;;;;;1600738;73;819;-56
2022/05/17 03:28:48;;;;;;;;;;;25.00;46.30;;;;;;1602744;73;751;-53
2022/05/17 03:30:50;;;;;;;;;;;24.90;46.30;;;;;;1607291;73;1560;-57
2022/05/17 03:32:52;;;;;;;;;;;25.00;46.30;;;;;;1602223;73;687;-57
2022/05/17 03:34:54;;;;;;;;;;;24.90;46.30;;;;;;1601103;73;762;-57
2022/05/17 03:36:56;;;;;;;;;;;25.00;46.20;;;;;;1576341;74;649;-53
2022/05/17 03:38:58;;;;;;;;;;;24.90;46.30;;;;;;1602018;73;675;-57
2022/05/17 03:40:59;;;;;;;;;;;24.90;46.30;;;;;;1600892;73;1957;-56
2022/05/17 03:43:01;;;;;;;;;;;25.00;46.30;;;;;;1601889;73;799;-54
2022/05/17 03:45:04;;;;;;;;;;;25.00;46.30;;;;;;1601621;73;1620;-58
2022/05/17 03:47:06;;;;;;;;;;;24.90;46.30;;;;;;1600815;73;674;-53
2022/05/17 03:49:08;;;;;;;;;;;24.90;46.40;;;;;;1607545;73;695;-53
2022/05/17 03:51:13;;;;;;;;;;;25.00;46.40;;;;;;1615250;73;1133;-57
2022/05/17 03:53:15;;;;;;;;;;;24.90;46.40;;;;;;1592960;73;711;-57
2022/05/17 03:55:17;;;;;;;;;;;24.90;46.50;;;;;;1603905;73;697;-56
2022/05/17 03:57:19;;;;;;;;;;;25.00;46.50;;;;;;1600653;73;668;-56
2022/05/17 03:59:21;;;;;;;;;;;24.90;46.60;;;;;;1598622;73;1541;-54
2022/05/17 04:01:23;;;;;;;;;;;24.90;46.70;;;;;;1613635;73;1939;-57
2022/05/17 04:03:24;;;;;;;;;;;25.00;46.60;;;;;;1610317;73;709;-57
2022/05/17 04:05:26;;;;;;;;;;;25.00;46.60;;;;;;1601660;73;652;-57
2022/05/17 04:07:29;;;;;;;;;;;25.00;46.70;;;;;;1620477;72;699;-55
2022/05/17 04:09:31;;;;;;;;;;;25.00;46.70;;;;;;1611717;73;745;-57
2022/05/17 04:11:36;;;;;;;;;;;24.90;46.70;;;;;;1600883;73;723;-57
2022/05/17 04:13:38;;;;;;;;;;;25.00;46.60;;;;;;1601040;73;1599;-54
2022/05/17 04:15:40;;;;;;;;;;;24.90;46.60;;;;;;1600914;73;712;-56
2022/05/17 04:17:42;;;;;;;;;;;24.90;46.60;;;;;;1615276;73;651;-55
2022/05/17 04:19:43;;;;;;;;;;;25.00;46.60;;;;;;1607995;72;1209;-57
2022/05/17 04:21:46;;;;;;;;;;;24.90;46.60;;;;;;1605423;73;1920;-56
2022/05/17 04:23:47;;;;;;;;;;;24.90;46.60;;;;;;1605473;73;781;-56
2022/05/17 04:25:49;;;;;;;;;;;25.00;46.60;;;;;;1621354;73;666;-56
2022/05/17 04:27:51;;;;;;;;;;;25.00;46.60;;;;;;1603969;73;1544;-57
2022/05/17 04:29:53;;;;;;;;;;;25.00;46.60;;;;;;1615277;73;1142;-53
2022/05/17 04:31:55;;;;;;;;;;;24.90;46.70;;;;;;1604475;73;746;-55
2022/05/17 04:33:57;;;;;;;;;;;24.90;46.70;;;;;;1612959;73;661;-56
2022/05/17 04:35:59;;;;;;;;;;;24.90;46.60;;;;;;1604052;73;806;-57
2022/05/17 04:38:01;;;;;;;;;;;25.00;46.70;;;;;;1605986;73;671;-57
2022/05/17 04:40:04;;;;;;;;;;;25.00;46.60;;;;;;1609417;73;1372;-57
2022/05/17 04:42:07;;;;;;;;;;;25.00;46.60;;;;;;1607893;73;1907;-55
2022/05/17 04:44:08;;;;;;;;;;;24.90;46.60;;;;;;1623388;73;697;-57
2022/05/17 04:46:10;;;;;;;;;;;25.00;46.60;;;;;;1601085;73;686;-55
2022/05/17 04:48:12;;;;;;;;;;;24.90;46.60;;;;;;1610758;73;742;-56
2022/05/17 04:50:14;;;;;;;;;;;24.90;46.60;;;;;;1603399;73;1051;-55
2022/05/17 04:52:16;;;;;;;;;;;24.90;46.70;;;;;;1614859;73;745;-56
2022/05/17 04:54:18;;;;;;;;;;;24.90;46.70;;;;;;1599824;73;1550;-56
2022/05/17 04:56:20;;;;;;;;;;;25.00;46.70;;;;;;1623637;73;684;-57
2022/05/17 04:58:22;;;;;;;;;;;24.90;46.70;;;;;;1615219;73;639;-57
2022/05/17 05:00:24;;;;;;;;;;;24.90;46.60;;;;;;1607633;73;1141;-57
2022/05/17 05:02:26;;;;;;;;;;;24.90;46.50;;;;;;1605888;73;1942;-57
2022/05/17 05:04:28;;;;;;;;;;;25.00;46.60;;;;;;1602176;73;670;-58
2022/05/17 05:06:30;;;;;;;;;;;24.90;46.60;;;;;;1619876;73;694;-57
2022/05/17 05:08:32;;;;;;;;;;;25.00;46.60;;;;;;1615373;73;1570;-57
2022/05/17 05:10:34;;;;;;;;;;;25.00;46.50;;;;;;1623383;73;1244;-60
2022/05/17 05:12:36;;;;;;;;;;;25.00;46.50;;;;;;1598792;73;692;-59
2022/05/17 05:14:37;;;;;;;;;;;24.90;46.40;;;;;;1605098;73;684;-58
2022/05/17 05:16:39;;;;;;;;;;;25.00;46.30;;;;;;1625622;73;745;-55
2022/05/17 05:18:41;;;;;;;;;;;24.90;46.30;;;;;;1599323;73;680;-58
2022/05/17 05:20:43;;;;;;;;;;;24.90;46.20;;;;;;1602821;73;1149;-57
2022/05/17 05:22:45;;;;;;;;;;;24.90;46.20;;;;;;1598660;73;1917;-56
2022/05/17 05:24:47;;;;;;;;;;;24.90;46.10;;;;;;1601545;73;805;-54
2022/05/17 05:26:49;;;;;;;;;;;24.90;46.00;;;;;;1572175;74;707;-59
2022/05/17 05:28:51;;;;;;;;;;;24.90;46.00;;;;;;1570020;74;685;-60
2022/05/17 05:30:54;;;;;;;;;;;24.80;45.90;;;;;;1545763;75;1155;-59
2022/05/17 05:32:56;;;;;;;;;;;24.90;46.00;;;;;;1543881;75;687;-56
2022/05/17 05:34:58;;;;;;;;;;;24.90;45.90;;;;;;1539873;76;834;-57
2022/05/17 05:37:01;;;;;;;;;;;24.80;45.80;;;;;;1545872;75;1582;-55
2022/05/17 05:39:03;;;;;;;;;;;24.80;45.80;;;;;;1544158;75;671;-56
2022/05/17 05:41:04;;;;;;;;;;;24.80;45.90;;;;;;1542417;75;1084;-55
2022/05/17 05:43:06;;;;;;;;;;;24.80;45.80;;;;;;1545878;75;1945;-58
2022/05/17 05:45:09;;;;;;;;;;;24.80;45.80;;;;;;1538281;75;652;-57
2022/05/17 05:47:10;;;;;;;;;;;24.80;45.70;;;;;;1540274;76;671;-59
2022/05/17 05:49:12;;;;;;;;;;;24.80;45.70;;;;;;1543495;75;688;-59
2022/05/17 05:51:14;;;;;;;;;;;24.90;45.80;;;;;;1539685;76;1578;-59
2022/05/17 05:53:16;;;;;;;;;;;24.80;45.70;;;;;;1565561;75;664;-59
2022/05/17 05:55:19;;;;;;;;;;;24.80;45.70;;;;;;1563681;75;616;-59
2022/05/17 05:57:21;;;;;;;;;;;24.80;45.70;;;;;;1563660;75;720;-57
2022/05/17 05:59:23;;;;;;;;;;;24.80;45.70;;;;;;1563629;75;716;-58
2022/05/17 06:01:26;;;;;;;;;;;24.80;45.70;;;;;;1565642;75;1124;-58
2022/05/17 06:03:28;;;;;;;;;;;24.80;45.70;;;;;;1563439;75;1930;-60
2022/05/17 06:05:30;;;;;;;;;;;24.80;45.60;;;;;;1559762;75;1573;-57
2022/05/17 06:07:32;;;;;;;;;;;24.80;45.70;;;;;;1563815;75;701;-58
2022/05/17 06:09:34;;;;;;;;;;;24.80;45.70;;;;;;1563801;75;1194;-59
2022/05/17 06:11:36;;;;;;;;;;;24.80;45.60;;;;;;1563755;75;739;-59
2022/05/17 06:13:38;;;;;;;;;;;24.80;45.60;;;;;;1563735;75;554;-59
2022/05/17 06:15:40;;;;;;;;;;;24.80;45.70;;;;;;1563820;76;741;-57
2022/05/17 06:17:42;;;;;;;;;;;24.80;45.60;;;;;;1563799;75;721;-59
2022/05/17 06:19:43;;;;;;;;;;;24.80;45.60;;;;;;1561554;75;1531;-60
2022/05/17 06:21:45;;;;;;;;;;;24.80;45.60;;;;;;1563744;76;1932;-58
2022/05/17 06:23:47;;;;;;;;;;;24.80;45.60;;;;;;1563911;75;772;-59
2022/05/17 06:25:49;;;;;;;;;;;24.80;45.50;;;;;;1591512;75;660;-59
2022/05/17 06:27:51;;;;;;;;;;;24.80;45.60;;;;;;1585776;75;679;-59
2022/05/17 06:29:53;;;;;;;;;;;24.80;45.50;;;;;;1563569;75;1138;-58
2022/05/17 06:31:55;;;;;;;;;;;24.90;45.60;;;;;;1564069;76;646;-59
2022/05/17 06:33:57;;;;;;;;;;;24.90;45.80;;;;;;1563622;75;1606;-59
2022/05/17 06:35:59;;;;;;;;;;;25.00;45.70;;;;;;1563889;76;674;-59
2022/05/17 06:38:02;;;;;;;;;;;25.10;45.70;;;;;;1563918;75;672;-58
2022/05/17 06:40:04;;;;;;;;;;;25.20;45.70;;;;;;1563864;76;1152;-59
2022/05/17 06:42:07;;;;;;;;;;;25.30;45.40;;;;;;1563826;75;1930;-58
2022/05/17 06:44:09;;;;;;;;;;;25.40;45.10;;;;;;1563740;75;750;-58
2022/05/17 06:46:11;;;;;;;;;;;25.40;44.70;;;;;;1553500;75;733;-59
2022/05/17 06:48:13;;;;;;;;;;;25.40;44.60;;;;;;1551827;75;1675;-58
2022/05/17 06:50:15;;;;;;;;;;;25.50;44.60;;;;;;1579268;73;1131;-59
2022/05/17 06:52:17;;;;;;;;;;;25.60;44.30;;;;;;1563994;75;680;-59
2022/05/17 06:54:18;;;;;;;;;;;25.60;44.30;;;;;;1563757;75;689;-59
2022/05/17 06:56:20;;;;;;;;;;;25.60;44.00;;;;;;1563827;75;683;-59
2022/05/17 06:58:23;;;;;;;;;;;25.60;43.90;;;;;;1563845;75;669;-59
2022/05/17 07:00:25;;;;;;;;;;;25.60;43.80;;;;;;1563488;75;1092;-59
2022/05/17 07:02:27;;;;;;;;;;;25.70;43.80;;;;;;1574605;75;1950;-59
2022/05/17 07:04:29;;;;;;;;;;;25.60;43.70;;;;;;1571331;75;775;-58
2022/05/17 07:06:31;;;;;;;;;;;25.70;43.80;;;;;;1563691;75;689;-58
2022/05/17 07:08:33;;;;;;;;;;;25.70;43.50;;;;;;1563844;75;782;-59
2022/05/17 07:13:10;;;;;;;;;;;25.70;43.10;;;;;;1556322;75;1693;-59
2022/05/17 07:15:12;;;;;;;;;;;25.60;43.20;;;;;;1563669;75;1581;-58
2022/05/17 07:17:15;;;;;;;;;;;25.60;43.20;;;;;;1576720;75;869;-59
2022/05/17 07:19:17;;;;;;;;;;;25.60;43.30;;;;;;1560807;75;803;-58
2022/05/17 07:21:19;;;;;;;;;;;25.60;43.30;;;;;;1563615;75;1130;-59
2022/05/17 07:23:24;;;;;;;;;;;25.60;43.10;;;;;;1566431;75;1943;-58
2022/05/17 07:25:25;;;;;;;;;;;25.60;43.20;;;;;;1563388;75;1504;-58
2022/05/17 07:27:27;;;;;;;;;;;25.60;43.10;;;;;;1563508;75;714;-58
2022/05/17 07:29:29;;;;;;;;;;;25.60;43.10;;;;;;1560392;75;1578;-59
2022/05/17 07:31:32;;;;;;;;;;;25.70;43.00;;;;;;1567126;75;1127;-58
2022/05/17 07:33:34;;;;;;;;;;;25.70;43.10;;;;;;1564348;75;652;-60
2022/05/17 07:35:36;;;;;;;;;;;25.70;43.10;;;;;;1563594;75;800;-57
2022/05/17 07:37:38;;;;;;;;;;;25.70;43.10;;;;;;1563593;75;747;-58
2022/05/17 07:39:40;;;;;;;;;;;25.70;43.10;;;;;;1563503;75;1152;-58
2022/05/17 07:41:42;;;;;;;;;;;25.80;43.10;;;;;;1561613;75;665;-57
2022/05/17 07:43:44;;;;;;;;;;;25.80;43.10;;;;;;1564306;75;1934;-58
2022/05/17 07:45:49;;;;;;;;;;;25.90;42.90;;;;;;1563795;75;712;-57
2022/05/17 07:47:49;;;;;;;;;;;25.90;42.80;;;;;;1566083;75;1508;-58
2022/05/17 07:49:51;;;;;;;;;;;25.80;42.80;;;;;;1571356;75;1109;-58
2022/05/17 07:51:54;;;;;;;;;;;25.90;42.90;;;;;;1579082;75;672;-58
2022/05/17 07:53:56;;;;;;;;;;;25.90;42.90;;;;;;1565908;75;781;-58
2022/05/17 07:55:58;;;;;;;;;;;25.90;42.90;;;;;;1563849;75;682;-59
2022/05/17 07:58:00;;;;;;;;;;;25.90;42.90;;;;;;1563786;75;1625;-58
2022/05/17 08:00:05;;;;;;;;;;;25.90;42.90;;;;;;1523223;73;3008;-54
2022/05/17 08:02:06;;;;;;;;;;;25.90;42.90;;;;;;1471262;79;1626;-56
2022/05/17 08:04:08;;;;;;;;;;;26.00;43.40;;;;;;1469079;79;1919;-57
2022/05/17 08:06:09;;;;;;;;;;;26.00;43.30;;;;;;1454827;80;740;-58
2022/05/17 08:08:11;;;;;;;;;;;26.00;43.40;;;;;;1478750;79;701;-57
2022/05/17 08:10:13;;;;;;;;;;;26.00;43.40;;;;;;1454560;80;1251;-58
2022/05/17 08:12:15;;;;;;;;;;;26.10;43.30;;;;;;1477816;79;1546;-58
2022/05/17 08:14:17;;;;;;;;;;;26.20;43.10;;;;;;1479363;79;724;-57
2022/05/17 08:16:19;;;;;;;;;;;26.00;43.10;;;;;;1450981;80;674;-57
2022/05/17 08:18:21;;;;;;;;;;;26.00;43.20;;;;;;1476694;79;690;-56
2022/05/17 08:20:23;;;;;;;;;;;26.00;43.40;;;;;;1453669;80;1172;-57
2022/05/17 08:22:25;;;;;;;;;;;26.00;43.50;;;;;;1449843;80;1924;-56
2022/05/17 08:24:28;;;;;;;;;;;26.00;43.60;;;;;;1454585;80;688;-58
2022/05/17 08:28:50;;;;;;;;;;;25.90;43.50;;;;;;1454458;81;1648;-56
2022/05/17 08:30:52;;;;;;;;;;;26.00;44.20;;;;;;1452893;79;1167;-59
2022/05/17 08:33:16;;;;;;;;;;;26.00;44.70;;;;;;1479079;78;704;-58
2022/05/17 08:35:18;;;;;;;;;;;26.10;44.30;;;;;;1480907;79;701;-57
2022/05/17 08:37:20;;;;;;;;;;;26.10;44.50;;;;;;1485046;79;718;-57
2022/05/17 08:39:22;;;;;;;;;;;26.10;44.60;;;;;;1482008;78;1501;-57
2022/05/17 08:41:28;;;;;;;;;;;26.10;44.70;;;;;;1479122;78;1125;-57
2022/05/17 08:43:32;;;;;;;;;;;26.00;44.80;;;;;;1480876;79;1911;-57
2022/05/17 08:45:35;;;;;;;;;;;26.00;44.50;;;;;;1484462;79;1624;-57
2022/05/17 08:47:45;;;;;;;;;;;26.10;44.60;;;;;;1482099;78;1816;-58
2022/05/17 08:49:58;;;;;;;;;;;26.00;44.60;;;;;;1477913;79;1179;-57
2022/05/17 08:52:01;;;;;;;;;;;26.10;44.80;;;;;;1482360;79;1055;-58
2022/05/17 08:54:05;;;;;;;;;;;26.10;45.10;;;;;;1479909;78;1484;-56
2022/05/17 08:56:07;;;;;;;;;;;26.00;45.10;;;;;;1479167;78;1710;-57
2022/05/17 08:58:21;;;;;;;;;;;26.10;45.10;;;;;;1476655;79;683;-57
2022/05/17 09:00:24;;;;;;;;;;;26.00;45.00;;;;;;1481757;79;1148;-58
2022/05/17 09:02:28;;;;;;;;;;;26.10;44.90;;;;;;1476174;79;741;-57
2022/05/17 09:04:34;;;;;;;;;;;26.00;44.80;;;;;;1480066;79;1942;-57
2022/05/17 09:06:38;;;;;;;;;;;26.00;45.00;;;;;;1469162;79;1144;-56
2022/05/17 09:08:58;;;;;;;;;;;26.00;45.10;;;;;;1476194;78;1733;-57
2022/05/17 09:11:04;;;;;;;;;;;26.00;44.90;;;;;;1476101;78;1223;-56
2022/05/17 09:13:11;;;;;;;;;;;26.00;45.00;;;;;;1479956;79;1013;-55
2022/05/17 09:15:14;;;;;;;;;;;26.00;44.60;;;;;;1477320;79;700;-56
2022/05/17 09:17:16;;;;;;;;;;;26.00;44.40;;;;;;1479409;79;708;-56
2022/05/17 09:19:18;;;;;;;;;;;26.00;44.50;;;;;;1478958;78;731;-56
2022/05/17 09:21:25;;;;;;;;;;;26.00;44.60;;;;;;1479414;79;1533;-56
2022/05/17 09:23:27;;;;;;;;;;;26.00;44.70;;;;;;1479313;78;1919;-57
2022/05/17 09:25:31;;;;;;;;;;;26.00;44.60;;;;;;1473646;79;667;-57
2022/05/17 09:27:39;;;;;;;;;;;25.90;44.10;;;;;;1449488;80;1590;-56
2022/05/17 09:29:45;;;;;;;;;;;26.00;44.60;;;;;;1463475;79;1148;-57
2022/05/17 09:31:49;;;;;;;;;;;26.00;44.60;;;;;;1472696;79;1686;-57
2022/05/17 09:33:51;;;;;;;;;;;26.00;44.20;;;;;;1483332;79;1099;-58
2022/05/17 09:35:56;;;;;;;;;;;26.00;44.20;;;;;;1485546;78;1465;-57
2022/05/17 09:37:58;;;;;;;;;;;26.00;44.10;;;;;;1490385;78;659;-57
2022/05/17 09:40:01;;;;;;;;;;;26.00;44.20;;;;;;1476944;79;1120;-57
2022/05/17 09:42:03;;;;;;;;;;;26.00;44.20;;;;;;1483316;79;689;-58
2022/05/17 09:44:07;;;;;;;;;;;26.00;44.20;;;;;;1479368;79;1938;-57
2022/05/17 09:46:09;;;;;;;;;;;26.00;44.30;;;;;;1449589;79;1875;-57
2022/05/17 09:48:11;;;;;;;;;;;25.90;43.60;;;;;;1455376;81;704;-55
2022/05/17 09:53:07;;;;;;;;;;;25.90;43.60;;;;;;1454522;80;1657;-57
2022/05/17 09:54:47;;;;;;;;;;;26.10;44.20;;;;;;1464679;79;1242;-57
2022/05/17 09:56:49;;;;;;;;;;;26.00;44.00;;;;;;1450831;80;680;-56
2022/05/17 09:58:51;;;;;;;;;;;26.00;44.00;;;;;;1458675;80;667;-55
2022/05/17 10:00:54;;;;;;;;;;;25.90;43.50;;;;;;1454858;81;1136;-57
2022/05/17 10:03:00;;;;;;;;;;;25.90;43.60;;;;;;1449596;80;1939;-57
2022/05/17 10:05:12;;;;;;;;;;;25.90;43.60;;;;;;1454084;80;1734;-56
2022/05/17 10:07:15;;;;;;;;;;;25.90;43.60;;;;;;1456994;80;706;-56
2022/05/17 10:09:30;;;;;;;;;;;25.90;43.60;;;;;;1466448;80;977;-56
2022/05/17 10:11:42;;;;;;;;;;;25.90;43.80;;;;;;1448888;80;1225;-57
2022/05/17 10:13:51;;;;;;;;;;;25.90;44.00;;;;;;1453658;81;683;-58
2022/05/17 10:15:53;;;;;;;;;;;25.90;43.70;;;;;;1454177;80;1580;-57
2022/05/17 10:17:57;;;;;;;;;;;25.90;43.40;;;;;;1456200;80;1500;-57
2022/05/17 10:20:06;;;;;;;;;;;25.90;43.40;;;;;;1477224;79;1150;-57
2022/05/17 10:22:13;;;;;;;;;;;25.80;43.20;;;;;;1495460;78;586;-57
2022/05/17 10:24:19;;;;;;;;;;;25.80;43.00;;;;;;1478291;78;1934;-57
2022/05/17 10:26:23;;;;;;;;;;;25.80;42.90;;;;;;1480983;78;732;-57
2022/05/17 10:28:32;;;;;;;;;;;25.80;43.00;;;;;;1479247;79;754;-57
2022/05/17 10:30:39;;;;;;;;;;;25.80;43.00;;;;;;1479409;79;1077;-57
2022/05/17 10:32:42;;;;;;;;;;;25.70;42.90;;;;;;1475322;78;1880;-57
2022/05/17 10:34:45;;;;;;;;;;;25.70;42.80;;;;;;1479222;79;665;-58
2022/05/17 10:36:48;;;;;;;;;;;25.70;42.80;;;;;;1479884;79;683;-57
2022/05/17 10:38:51;;;;;;;;;;;25.70;42.50;;;;;;1477839;78;640;-58
2022/05/17 10:40:54;;;;;;;;;;;25.60;42.70;;;;;;1498370;78;1746;-58
2022/05/17 10:42:57;;;;;;;;;;;25.60;42.60;;;;;;1478794;79;644;-57
2022/05/17 10:44:59;;;;;;;;;;;25.70;42.30;;;;;;1478737;79;1910;-57
2022/05/17 10:47:02;;;;;;;;;;;25.60;42.30;;;;;;1474341;78;1504;-58
2022/05/17 10:49:22;;;;;;;;;;;25.60;42.20;;;;;;1485795;78;1741;-57
2022/05/17 10:51:38;;;;;;;;;;;25.60;42.20;;;;;;1479587;79;1131;-57
2022/05/17 10:53:45;;;;;;;;;;;25.60;42.10;;;;;;1490840;79;843;-57
2022/05/17 10:55:48;;;;;;;;;;;25.60;41.80;;;;;;1504547;78;1723;-57
2022/05/17 10:58:01;;;;;;;;;;;25.60;42.00;;;;;;1479559;78;636;-59
2022/05/17 11:00:14;;;;;;;;;;;25.60;41.80;;;;;;1479115;79;1389;-58
2022/05/17 11:02:21;;;;;;;;;;;25.60;41.80;;;;;;1490862;79;1585;-57
2022/05/17 11:04:57;;;;;;;;;;;25.60;41.70;;;;;;1499899;78;1941;-56
2022/05/17 11:06:46;;;;;;;;;;;25.60;41.40;;;;;;1465804;79;1142;-57
2022/05/17 11:09:06;;;;;;;;;;;25.60;41.60;;;;;;1464257;80;711;-57
2022/05/17 11:11:12;;;;;;;;;;;25.50;41.40;;;;;;1473366;79;1168;-56
2022/05/17 11:13:16;;;;;;;;;;;25.50;41.30;;;;;;1481770;79;719;-57
2022/05/17 11:15:19;;;;;;;;;;;25.40;41.20;;;;;;1461367;79;1748;-58
2022/05/17 11:17:29;;;;;;;;;;;25.40;41.20;;;;;;1496597;78;1729;-56
2022/05/17 11:19:33;;;;;;;;;;;25.40;41.00;;;;;;1490967;79;680;-58
2022/05/17 11:21:39;;;;;;;;;;;25.40;40.90;;;;;;1473635;79;740;-56
2022/05/17 11:23:45;;;;;;;;;;;25.40;40.80;;;;;;1490483;79;1942;-57
2022/05/17 11:25:49;;;;;;;;;;;25.40;40.70;;;;;;1459661;78;1073;-57
2022/05/17 11:27:53;;;;;;;;;;;25.40;40.60;;;;;;1493000;78;1503;-56
2022/05/17 11:29:59;;;;;;;;;;;25.40;40.70;;;;;;1500277;78;1667;-57
2022/05/17 11:32:02;;;;;;;;;;;25.40;40.50;;;;;;1478202;79;1850;-56
2022/05/17 11:34:06;;;;;;;;;;;25.30;40.40;;;;;;1468716;78;1032;-57
2022/05/17 11:36:12;;;;;;;;;;;25.30;40.40;;;;;;1483843;78;1017;-57
2022/05/17 11:38:16;;;;;;;;;;;25.30;40.50;;;;;;1476479;78;1610;-57
2022/05/17 11:40:35;;;;;;;;;;;25.30;40.50;;;;;;1498343;79;1844;-57
2022/05/17 11:43:40;;;;;;;;;;;25.20;39.80;;;;;;1479685;78;1672;-56
2022/05/17 11:44:46;;;;;;;;;;;25.30;40.20;;;;;;1482684;78;1918;-57
2022/05/17 11:46:54;;;;;;;;;;;25.20;40.20;;;;;;1473211;79;1308;-57
2022/05/17 11:48:56;;;;;;;;;;;25.20;40.30;;;;;;1477035;79;1828;-57
2022/05/17 11:50:59;;;;;;;;;;;25.20;40.50;;;;;;1480159;78;1160;-58
2022/05/17 11:53:18;;;;;;;;;;;25.20;40.40;;;;;;1484514;78;700;-57
2022/05/17 11:55:23;;;;;;;;;;;25.20;40.40;;;;;;1460079;80;722;-57
2022/05/17 11:57:26;;;;;;;;;;;25.20;40.30;;;;;;1454070;80;1971;-58
2022/05/17 11:59:29;;;;;;;;;;;25.20;40.20;;;;;;1477105;79;708;-57
2022/05/17 12:01:33;;;;;;;;;;;25.20;40.20;;;;;;1477421;79;1078;-57
2022/05/17 12:03:51;;;;;;;;;;;25.20;40.20;;;;;;1478830;79;1934;-57
2022/05/17 12:05:54;;;;;;;;;;;25.20;40.10;;;;;;1478421;79;777;-57
2022/05/17 12:07:58;;;;;;;;;;;25.10;40.10;;;;;;1481536;78;792;-56
2022/05/17 12:10:10;;;;;;;;;;;25.20;40.20;;;;;;1475842;79;1464;-56
2022/05/17 12:12:29;;;;;;;;;;;25.20;40.10;;;;;;1474087;79;707;-58
2022/05/17 12:14:32;;;;;;;;;;;25.10;40.10;;;;;;1477430;79;724;-56
2022/05/17 12:16:35;;;;;;;;;;;25.10;40.20;;;;;;1480169;79;2009;-56
2022/05/17 12:18:41;;;;;;;;;;;25.10;39.10;;;;;;1489220;79;758;-55
2022/05/17 12:21:03;;;;;;;;;;;25.00;40.00;;;;;;1479631;78;1165;-57
2022/05/17 12:23:12;;;;;;;;;;;25.10;40.10;;;;;;1479310;78;724;-57